createdAt,value
2022-09-20T00:01:49.425Z,25.40
2022-09-20T00:04:18.307Z,25.50
2022-09-20T00:06:47.467Z,25.50
2022-09-20T00:09:16.375Z,25.50
2022-09-20T00:11:46.498Z,25.50
2022-09-20T00:14:15.469Z,25.60
2022-09-20T00:16:44.478Z,25.60
2022-09-20T00:19:20.470Z,25.60
2022-09-20T00:21:49.822Z,25.60
2022-09-20T00:24:18.830Z,25.70
2022-09-20T00:26:47.778Z,25.70
2022-09-20T00:29:16.724Z,25.80
2022-09-20T00:31:45.742Z,25.80
2022-09-20T00:34:33.368Z,25.80
2022-09-20T00:37:02.288Z,25.80
2022-09-20T00:39:31.293Z,25.80
2022-09-20T00:42:00.393Z,25.90
2022-09-20T00:44:48.892Z,25.90
2022-09-20T00:47:27.991Z,26.00
2022-09-20T00:50:19.775Z,26.00
2022-09-20T00:52:53.876Z,26.00
2022-09-20T00:55:23.877Z,26.00
2022-09-20T00:57:53.142Z,26.10
2022-09-20T01:00:22.504Z,26.10
2022-09-20T01:02:58.958Z,26.10
2022-09-20T01:05:28.420Z,26.20
2022-09-20T01:07:58.402Z,26.20
2022-09-20T01:10:27.339Z,26.30
2022-09-20T01:12:56.566Z,26.30
2022-09-20T01:15:28.938Z,26.30
2022-09-20T01:18:00.657Z,26.40
2022-09-20T01:20:36.989Z,26.40
2022-09-20T01:23:33.465Z,26.50
2022-09-20T01:26:20.655Z,26.60
2022-09-20T01:28:52.684Z,26.70
2022-09-20T01:31:29.928Z,26.80
2022-09-20T01:34:09.736Z,26.80
2022-09-20T01:36:53.958Z,26.90
2022-09-20T01:39:40.491Z,27.00
2022-09-20T01:42:15.814Z,27.10
2022-09-20T01:45:03.169Z,27.20
2022-09-20T01:48:06.174Z,27.20
2022-09-20T01:50:56.574Z,27.20
2022-09-20T01:53:28.434Z,27.30
2022-09-20T01:56:38.881Z,27.30
2022-09-20T01:59:29.638Z,27.40
2022-09-20T02:02:20.616Z,27.50
2022-09-20T02:05:30.741Z,27.60
2022-09-20T02:08:02.844Z,27.60
2022-09-20T02:10:43.962Z,27.70
2022-09-20T02:13:26.667Z,27.70
2022-09-20T02:16:13.110Z,27.70
2022-09-20T02:19:12.741Z,27.80
2022-09-20T02:21:56.968Z,27.80
2022-09-20T02:24:48.116Z,27.80
2022-09-20T02:27:47.465Z,27.80
2022-09-20T02:30:37.666Z,27.80
2022-09-20T02:33:25.158Z,27.90
2022-09-20T02:36:26.108Z,27.90
2022-09-20T02:39:12.077Z,27.90
2022-09-20T02:42:12.031Z,28.00
2022-09-20T02:45:10.778Z,28.10
2022-09-20T02:47:40.917Z,28.20
2022-09-20T02:50:27.933Z,28.30
2022-09-20T02:53:00.148Z,28.40
2022-09-20T02:56:02.595Z,28.40
2022-09-20T02:58:56.053Z,28.50
2022-09-20T03:01:34.209Z,28.70
2022-09-20T03:04:21.607Z,28.80
2022-09-20T03:10:07.760Z,29.00
2022-09-20T03:12:54.176Z,29.20
2022-09-20T03:15:59.822Z,29.30
2022-09-20T03:18:55.381Z,29.50
2022-09-20T03:21:37.816Z,29.70
2022-09-20T03:24:15.198Z,29.90
2022-09-20T03:26:53.317Z,30.10
2022-09-20T03:29:22.118Z,30.30
2022-09-20T03:32:22.885Z,30.50
2022-09-20T03:35:19.070Z,30.60
2022-09-20T03:37:50.974Z,30.70
2022-09-20T03:40:29.474Z,30.90
2022-09-20T03:43:21.387Z,31.00
2022-09-20T03:46:19.680Z,31.10
2022-09-20T03:49:17.191Z,31.10
2022-09-20T03:52:04.280Z,31.10
2022-09-20T03:54:47.178Z,31.20
2022-09-20T03:57:44.432Z,31.20
2022-09-20T04:00:24.702Z,31.30
2022-09-20T04:03:11.394Z,31.30
2022-09-20T04:06:16.641Z,31.40
2022-09-20T04:09:13.361Z,31.40
2022-09-20T04:12:29.932Z,31.40
2022-09-20T04:15:23.338Z,31.30
2022-09-20T04:18:22.757Z,31.20
2022-09-20T04:21:24.974Z,31.10
2022-09-20T04:24:24.786Z,31.10
2022-09-20T04:27:14.867Z,31.00
2022-09-20T04:29:59.522Z,31.10
2022-09-20T04:32:57.695Z,31.10
2022-09-20T04:36:03.041Z,31.20
2022-09-20T04:38:32.640Z,31.40
2022-09-20T04:41:21.737Z,31.50
2022-09-20T04:44:15.089Z,31.60
2022-09-20T04:46:56.395Z,31.70
2022-09-20T04:49:44.823Z,31.80
2022-09-20T04:52:16.982Z,31.80
2022-09-20T04:55:19.511Z,31.90
2022-09-20T04:58:34.986Z,31.80
2022-09-20T05:01:20.314Z,31.80
2022-09-20T05:03:55.392Z,31.70
2022-09-20T05:06:42.415Z,31.80
2022-09-20T05:09:14.809Z,31.70
2022-09-20T05:11:48.110Z,31.70
2022-09-20T05:14:58.603Z,31.70
2022-09-20T05:17:53.198Z,31.60
2022-09-20T05:20:47.504Z,31.60
2022-09-20T05:23:58.474Z,31.70
2022-09-20T05:26:50.215Z,31.70
2022-09-20T05:29:27.706Z,31.70
2022-09-20T05:32:24.476Z,31.70
2022-09-20T05:35:14.441Z,31.70
2022-09-20T05:38:07.974Z,31.80
2022-09-20T05:40:55.527Z,31.70
2022-09-20T05:43:34.178Z,31.70
2022-09-20T05:46:24.193Z,31.70
2022-09-20T05:48:58.664Z,31.70
2022-09-20T05:52:04.593Z,31.70
2022-09-20T05:54:58.080Z,31.80
2022-09-20T05:57:41.985Z,31.90
2022-09-20T06:00:18.610Z,31.90
2022-09-20T06:02:55.188Z,31.90
2022-09-20T06:05:55.316Z,31.80
2022-09-20T06:08:44.619Z,31.80
2022-09-20T06:11:47.319Z,31.90
2022-09-20T06:14:22.240Z,31.80
2022-09-20T06:17:12.214Z,31.80
2022-09-20T06:20:22.649Z,31.90
2022-09-20T06:23:00.347Z,31.90
2022-09-20T06:25:42.291Z,31.80
2022-09-20T06:28:25.690Z,31.80
2022-09-20T06:30:57.100Z,31.80
2022-09-20T06:33:30.115Z,31.90
2022-09-20T06:36:24.207Z,32.00
2022-09-20T06:39:17.445Z,32.10
2022-09-20T06:41:47.231Z,32.30
2022-09-20T06:44:16.136Z,32.30
2022-09-20T06:46:47.339Z,32.40
2022-09-20T06:49:16.377Z,32.40
2022-09-20T06:51:45.424Z,32.40
2022-09-20T06:54:19.784Z,32.30
2022-09-20T06:56:50.714Z,32.30
2022-09-20T06:59:19.652Z,32.20
2022-09-20T07:01:48.847Z,32.20
2022-09-20T07:04:18.185Z,32.10
2022-09-20T07:06:47.079Z,32.10
2022-09-20T07:09:15.999Z,32.10
2022-09-20T07:11:47.488Z,32.10
2022-09-20T07:14:17.523Z,32.10
2022-09-20T07:16:46.560Z,32.10
2022-09-20T07:19:15.576Z,32.00
2022-09-20T07:21:47.751Z,32.00
2022-09-20T07:24:16.651Z,31.90
2022-09-20T07:27:03.706Z,31.90
2022-09-20T07:29:32.757Z,31.80
2022-09-20T07:32:01.876Z,31.70
2022-09-20T07:34:30.915Z,31.60
2022-09-20T07:37:01.083Z,31.60
2022-09-20T07:39:30.121Z,31.50
2022-09-20T07:41:59.273Z,31.40
2022-09-20T07:44:29.141Z,31.40
2022-09-20T07:47:00.512Z,31.30
2022-09-20T07:49:33.765Z,31.20
2022-09-20T07:52:04.696Z,31.10
2022-09-20T07:54:33.597Z,31.00
2022-09-20T07:57:02.857Z,30.90
2022-09-20T07:59:31.778Z,30.80
2022-09-20T08:02:01.843Z,30.60
2022-09-20T08:04:30.901Z,30.40
2022-09-20T08:06:59.915Z,30.20
2022-09-20T08:09:28.796Z,30.00
2022-09-20T08:14:05.324Z,29.70
2022-09-20T08:14:49.703Z,29.60
2022-09-20T08:17:18.650Z,29.40
2022-09-20T08:19:50.140Z,29.30
2022-09-20T08:22:19.114Z,29.10
2022-09-20T08:24:48.206Z,29.00
2022-09-20T08:27:17.109Z,29.00
2022-09-20T08:29:45.994Z,28.90
2022-09-20T08:32:14.871Z,28.80
2022-09-20T08:34:43.804Z,28.80
2022-09-20T08:37:12.707Z,28.80
2022-09-20T08:39:57.794Z,28.80
2022-09-20T08:42:44.474Z,28.80
2022-09-20T08:45:23.219Z,28.80
2022-09-20T08:48:07.563Z,28.80
2022-09-20T08:50:37.944Z,28.70
2022-09-20T08:53:07.262Z,28.80
2022-09-20T08:55:40.556Z,28.80
2022-09-20T08:58:16.049Z,28.80
2022-09-20T09:00:48.032Z,28.90
2022-09-20T09:03:19.049Z,28.90
2022-09-20T09:05:54.397Z,29.00
2022-09-20T09:08:54.776Z,29.00
2022-09-20T09:11:24.555Z,29.10
2022-09-20T09:14:31.776Z,29.20
2022-09-20T09:17:01.930Z,29.20
2022-09-20T09:19:35.237Z,29.30
2022-09-20T09:22:08.338Z,29.30
2022-09-20T09:24:37.352Z,29.40
2022-09-20T09:27:28.678Z,29.40
2022-09-20T09:30:01.125Z,29.50
2022-09-20T09:32:34.874Z,29.60
2022-09-20T09:35:24.760Z,29.60
2022-09-20T09:38:02.430Z,29.70
2022-09-20T09:40:33.605Z,29.80
2022-09-20T09:43:05.236Z,29.80
2022-09-20T09:45:42.209Z,29.80
2022-09-20T09:48:26.715Z,29.80
2022-09-20T09:51:16.707Z,29.90
2022-09-20T09:53:46.686Z,29.90
2022-09-20T09:56:33.490Z,29.90
2022-09-20T09:59:46.517Z,30.00
2022-09-20T10:02:33.608Z,30.00
2022-09-20T10:05:05.824Z,30.00
2022-09-20T10:07:55.474Z,30.00
2022-09-20T10:10:52.147Z,30.00
2022-09-20T10:13:45.267Z,30.10
2022-09-20T10:16:33.291Z,30.00
2022-09-20T10:19:10.037Z,30.00
2022-09-20T10:21:57.301Z,30.00
2022-09-20T10:24:46.446Z,29.90
2022-09-20T10:27:32.532Z,29.90
2022-09-20T10:30:18.457Z,29.90
2022-09-20T10:33:02.874Z,29.80
2022-09-20T10:35:54.763Z,29.70
2022-09-20T10:38:29.796Z,29.70
2022-09-20T10:41:22.645Z,29.70
2022-09-20T10:44:09.723Z,29.60
2022-09-20T10:47:09.280Z,29.60
2022-09-20T10:49:52.525Z,29.50
2022-09-20T10:52:50.369Z,29.50
2022-09-20T10:55:28.126Z,29.50
2022-09-20T10:58:31.695Z,29.40
2022-09-20T11:01:21.992Z,29.40
2022-09-20T11:03:50.949Z,29.40
2022-09-20T11:06:28.080Z,29.40
2022-09-20T11:09:01.489Z,29.30
2022-09-20T11:11:46.898Z,29.30
2022-09-20T11:14:34.863Z,29.30
2022-09-20T11:17:17.599Z,29.20
2022-09-20T11:20:09.254Z,29.20
2022-09-20T11:22:39.981Z,29.20
2022-09-20T11:25:22.297Z,29.10
2022-09-20T11:27:59.355Z,29.00
2022-09-20T11:30:30.636Z,28.90
2022-09-20T11:33:20.614Z,28.80
2022-09-20T11:36:02.881Z,28.80
2022-09-20T11:38:39.193Z,28.70
2022-09-20T11:41:36.682Z,28.60
2022-09-20T11:44:13.685Z,28.60
2022-09-20T11:46:54.088Z,28.50
2022-09-20T11:49:28.115Z,28.40
2022-09-20T11:52:18.608Z,28.30
2022-09-20T11:55:00.084Z,28.20
2022-09-20T11:57:29.559Z,28.10
2022-09-20T12:00:06.952Z,28.00
2022-09-20T12:02:55.823Z,28.00
2022-09-20T12:05:34.763Z,27.90
2022-09-20T12:08:09.744Z,27.90
2022-09-20T12:10:40.913Z,27.80
2022-09-20T12:13:24.579Z,27.70
2022-09-20T12:16:04.766Z,27.70
2022-09-20T12:18:36.899Z,27.60
2022-09-20T12:21:15.018Z,27.60
2022-09-20T12:23:59.602Z,27.60
2022-09-20T12:26:28.075Z,27.50
2022-09-20T12:29:24.345Z,27.50
2022-09-20T12:31:55.212Z,27.40
2022-09-20T12:34:24.085Z,27.40
2022-09-20T12:36:55.549Z,27.30
2022-09-20T12:39:41.194Z,27.30
2022-09-20T12:42:12.973Z,27.30
2022-09-20T12:44:42.987Z,27.20
2022-09-20T12:47:14.754Z,27.20
2022-09-20T12:50:21.712Z,27.20
2022-09-20T12:52:59.213Z,27.20
2022-09-20T12:56:03.308Z,27.10
2022-09-20T12:58:54.610Z,27.10
2022-09-20T13:01:23.610Z,27.00
2022-09-20T13:03:53.039Z,27.00
2022-09-20T13:06:22.179Z,26.90
2022-09-20T13:09:03.464Z,26.90
2022-09-20T13:11:52.130Z,26.90
2022-09-20T13:14:32.486Z,26.80
2022-09-20T13:17:20.791Z,26.80
2022-09-20T13:19:52.166Z,26.80
2022-09-20T13:22:38.721Z,26.80
2022-09-20T13:25:15.041Z,26.70
2022-09-20T13:28:10.842Z,26.70
2022-09-20T13:30:41.689Z,26.70
2022-09-20T13:33:21.897Z,26.70
2022-09-20T13:35:55.530Z,26.70
2022-09-20T13:38:26.275Z,26.60
2022-09-20T13:41:04.948Z,26.60
2022-09-20T13:43:39.206Z,26.60
2022-09-20T13:46:20.372Z,26.60
2022-09-20T13:48:54.239Z,26.50
2022-09-20T13:51:28.608Z,26.50
2022-09-20T13:54:20.168Z,26.50
2022-09-20T13:56:50.104Z,26.50
2022-09-20T13:59:20.352Z,26.50
2022-09-20T14:01:55.601Z,26.40
2022-09-20T14:04:29.866Z,26.50
2022-09-20T14:07:01.850Z,26.40
2022-09-20T14:09:37.980Z,26.30
2022-09-20T14:12:08.132Z,26.30
2022-09-20T14:14:37.892Z,26.40
2022-09-20T14:17:09.995Z,26.30
2022-09-20T14:19:43.538Z,26.30
2022-09-20T14:22:28.548Z,26.30
2022-09-20T14:25:15.679Z,26.30
2022-09-20T14:27:44.737Z,26.20
2022-09-20T14:30:34.634Z,26.20
2022-09-20T14:33:04.995Z,26.20
2022-09-20T14:35:34.057Z,26.20
2022-09-20T14:38:09.799Z,26.10
2022-09-20T14:40:48.302Z,26.10
2022-09-20T14:43:37.243Z,26.10
2022-09-20T14:46:18.781Z,26.10
2022-09-20T14:48:47.814Z,26.10
2022-09-20T14:51:20.056Z,26.10
2022-09-20T14:53:54.029Z,26.10
2022-09-20T14:56:34.299Z,26.00
2022-09-20T14:59:15.048Z,26.00
2022-09-20T15:01:46.979Z,26.10
2022-09-20T15:04:23.943Z,26.10
2022-09-20T15:06:54.215Z,26.10
2022-09-20T15:09:23.929Z,26.00
2022-09-20T15:12:20.233Z,26.00
2022-09-20T15:14:50.169Z,26.00
2022-09-20T15:17:20.196Z,26.00
2022-09-20T15:19:50.617Z,25.90
2022-09-20T15:22:19.519Z,25.90
2022-09-20T15:24:48.519Z,25.90
2022-09-20T15:27:17.424Z,25.90
2022-09-20T15:29:46.293Z,25.90
2022-09-20T15:32:15.256Z,25.90
2022-09-20T15:34:44.156Z,25.90
2022-09-20T15:37:13.076Z,25.90
2022-09-20T15:39:42.037Z,25.90
2022-09-20T15:42:10.941Z,25.80
2022-09-20T15:44:39.863Z,25.80
2022-09-20T15:47:11.808Z,25.80
2022-09-20T15:49:47.656Z,25.80
2022-09-20T15:52:16.699Z,25.80
2022-09-20T15:54:45.590Z,25.80
2022-09-20T15:57:14.423Z,25.80
2022-09-20T15:59:43.505Z,25.80
2022-09-20T16:02:13.825Z,25.70
2022-09-20T16:04:42.777Z,25.70
2022-09-20T16:07:12.046Z,25.70
2022-09-20T16:09:40.943Z,25.70
2022-09-20T16:12:10.460Z,25.70
2022-09-20T16:14:39.588Z,25.80
2022-09-20T16:17:08.570Z,25.70
2022-09-20T16:19:39.165Z,25.70
2022-09-20T16:22:08.340Z,25.70
2022-09-20T16:24:38.505Z,25.70
2022-09-20T16:27:09.646Z,25.70
2022-09-20T16:29:38.616Z,25.70
2022-09-20T16:32:07.553Z,25.70
2022-09-20T16:34:37.914Z,25.70
2022-09-20T16:37:11.471Z,25.70
2022-09-20T16:39:43.072Z,25.60
2022-09-20T16:42:14.331Z,25.60
2022-09-20T16:44:44.578Z,25.60
2022-09-20T16:47:27.290Z,25.60
2022-09-20T16:49:58.622Z,25.60
2022-09-20T16:52:34.957Z,25.60
2022-09-20T16:55:14.278Z,25.60
2022-09-20T16:57:43.808Z,25.60
2022-09-20T17:00:13.235Z,25.60
2022-09-20T17:02:47.098Z,25.60
2022-09-20T17:05:16.786Z,25.60
2022-09-20T17:07:45.781Z,25.50
2022-09-20T17:10:14.757Z,25.60
2022-09-20T17:12:45.870Z,25.60
2022-09-20T17:15:14.934Z,25.50
2022-09-20T17:17:43.790Z,25.50
2022-09-20T17:20:14.235Z,25.50
2022-09-20T17:22:43.605Z,25.50
2022-09-20T17:25:13.196Z,25.50
2022-09-20T17:27:42.152Z,25.50
2022-09-20T17:30:11.690Z,25.40
2022-09-20T17:32:40.584Z,25.40
2022-09-20T17:35:10.490Z,25.40
2022-09-20T17:37:39.317Z,25.40
2022-09-20T17:40:08.906Z,25.40
2022-09-20T17:42:39.099Z,25.40
2022-09-20T17:45:08.725Z,25.30
2022-09-20T17:47:37.529Z,25.30
2022-09-20T17:50:06.768Z,25.30
2022-09-20T17:52:35.714Z,25.30
2022-09-20T17:55:04.709Z,25.30
2022-09-20T17:57:33.614Z,25.30
2022-09-20T18:00:02.911Z,25.30
2022-09-20T18:02:32.671Z,25.30
2022-09-20T18:05:01.599Z,25.30
2022-09-20T18:07:30.563Z,25.30
2022-09-20T18:09:59.947Z,25.30
2022-09-20T18:12:28.797Z,25.30
2022-09-20T18:14:58.445Z,25.30
2022-09-20T18:17:27.363Z,25.20
2022-09-20T18:19:56.259Z,25.20
2022-09-20T18:22:25.152Z,25.30
2022-09-20T18:24:53.951Z,25.30
2022-09-20T18:27:22.816Z,25.20
2022-09-20T18:29:51.865Z,25.30
2022-09-20T18:32:20.690Z,25.20
2022-09-20T18:34:52.390Z,25.20
2022-09-20T18:37:21.302Z,25.20
2022-09-20T18:39:50.667Z,25.20
2022-09-20T18:42:19.515Z,25.20
2022-09-20T18:44:50.680Z,25.10
2022-09-20T18:47:20.387Z,25.10
2022-09-20T18:49:49.258Z,25.10
2022-09-20T18:52:25.600Z,25.10
2022-09-20T18:54:57.045Z,25.10
2022-09-20T18:57:26.261Z,25.10
2022-09-20T19:00:00.679Z,25.10
2022-09-20T19:02:56.530Z,25.10
2022-09-20T19:05:44.922Z,25.10
2022-09-20T19:08:29.818Z,25.10
2022-09-20T19:11:05.500Z,25.00
2022-09-20T19:13:54.458Z,25.10
2022-09-20T19:16:25.543Z,25.00
2022-09-20T19:19:15.959Z,25.10
2022-09-20T19:22:23.037Z,25.00
2022-09-20T19:25:10.400Z,25.10
2022-09-20T19:27:39.677Z,25.00
2022-09-20T19:30:09.211Z,25.00
2022-09-20T19:32:38.386Z,25.00
2022-09-20T19:35:16.578Z,25.00
2022-09-20T19:38:07.675Z,25.00
2022-09-20T19:40:53.858Z,25.00
2022-09-20T19:43:36.165Z,25.00
2022-09-20T19:46:21.169Z,25.00
2022-09-20T19:49:43.268Z,25.00
2022-09-20T19:52:15.187Z,25.00
2022-09-20T19:54:47.600Z,25.00
2022-09-20T19:57:48.146Z,25.00
2022-09-20T20:00:19.970Z,25.00
2022-09-20T20:02:49.516Z,25.00
2022-09-20T20:05:21.223Z,25.00
2022-09-20T20:08:13.705Z,24.90
2022-09-20T20:11:06.848Z,24.90
2022-09-20T20:13:56.760Z,25.00
2022-09-20T20:16:53.454Z,25.00
2022-09-20T20:19:46.137Z,24.90
2022-09-20T20:22:24.687Z,24.90
2022-09-20T20:24:55.173Z,24.90
2022-09-20T20:27:26.338Z,24.90
2022-09-20T20:29:56.435Z,24.90
2022-09-20T20:32:26.941Z,24.90
2022-09-20T20:34:55.833Z,24.90
2022-09-20T20:37:27.372Z,24.90
2022-09-20T20:39:56.350Z,24.90
2022-09-20T20:42:25.281Z,24.90
2022-09-20T20:44:54.194Z,24.90
2022-09-20T20:47:24.180Z,24.90
2022-09-20T20:49:54.635Z,24.90
2022-09-20T20:52:24.047Z,24.90
2022-09-20T20:54:53.074Z,24.90
2022-09-20T20:57:21.912Z,24.90
2022-09-20T20:59:50.782Z,25.00
2022-09-20T21:02:20.664Z,24.90
2022-09-20T21:04:49.522Z,24.90
2022-09-20T21:07:19.199Z,24.90
2022-09-20T21:09:48.112Z,24.90
2022-09-20T21:12:16.956Z,24.90
2022-09-20T21:14:46.279Z,24.90
2022-09-20T21:17:15.281Z,24.90
2022-09-20T21:19:44.257Z,24.90
2022-09-20T21:22:33.217Z,24.90
2022-09-20T21:25:02.103Z,24.90
2022-09-20T21:27:31.149Z,24.90
2022-09-20T21:30:00.120Z,24.90
2022-09-20T21:32:28.964Z,24.90
2022-09-20T21:34:58.205Z,24.90
2022-09-20T21:37:27.268Z,24.90
2022-09-20T21:39:56.230Z,24.90
2022-09-20T21:42:26.650Z,24.90
2022-09-20T21:44:55.578Z,24.90
2022-09-20T21:47:24.508Z,24.90
2022-09-20T21:49:53.317Z,24.90
2022-09-20T21:52:22.165Z,24.90
2022-09-20T21:54:52.168Z,24.90
2022-09-20T21:57:20.972Z,24.90
2022-09-20T21:59:50.287Z,24.90
2022-09-20T22:02:19.161Z,24.80
2022-09-20T22:04:48.037Z,24.90
2022-09-20T22:07:17.639Z,24.90
2022-09-20T22:09:47.031Z,24.80
2022-09-20T22:12:15.911Z,24.80
2022-09-20T22:14:45.604Z,24.80
2022-09-20T22:17:14.501Z,24.80
2022-09-20T22:19:43.463Z,24.80
2022-09-20T22:22:12.348Z,24.80
2022-09-20T22:24:41.211Z,24.80
2022-09-20T22:27:10.027Z,24.80
2022-09-20T22:29:38.910Z,24.80
2022-09-20T22:32:07.872Z,24.80
2022-09-20T22:34:36.770Z,24.80
2022-09-20T22:37:05.730Z,24.80
2022-09-20T22:39:34.734Z,24.80
2022-09-20T22:42:03.689Z,24.80
2022-09-20T22:44:32.502Z,24.90
2022-09-20T22:47:01.322Z,24.90
2022-09-20T22:49:30.223Z,24.90
2022-09-20T22:51:59.111Z,24.90
2022-09-20T22:54:27.996Z,24.90
2022-09-20T22:56:56.906Z,25.00
2022-09-20T22:59:25.821Z,25.00
2022-09-20T23:01:54.697Z,25.00
2022-09-20T23:04:24.539Z,25.10
2022-09-20T23:06:57.879Z,25.10
2022-09-20T23:09:31.398Z,25.10
2022-09-20T23:12:00.278Z,25.10
2022-09-20T23:14:29.143Z,25.10
2022-09-20T23:16:58.054Z,25.10
2022-09-20T23:19:27.525Z,25.10
2022-09-20T23:21:56.369Z,25.10
2022-09-20T23:24:25.271Z,25.10
2022-09-20T23:26:54.142Z,25.10
2022-09-20T23:29:23.638Z,25.10
2022-09-20T23:31:52.551Z,25.10
2022-09-20T23:34:21.378Z,25.10
2022-09-20T23:36:50.275Z,25.20
2022-09-20T23:39:19.159Z,25.20
2022-09-20T23:41:51.079Z,25.20
2022-09-20T23:44:20.424Z,25.20
2022-09-20T23:46:49.365Z,25.20
2022-09-20T23:49:18.441Z,25.20
2022-09-20T23:51:47.367Z,25.20
2022-09-20T23:54:16.230Z,25.30
2022-09-20T23:56:45.103Z,25.30
2022-09-20T23:59:13.920Z,25.30
